TimeMDT,TemperatureF,Dew PointF,Humidity,Sea Level PressureIn,VisibilityMPH,Wind Direction,Wind SpeedMPH,Gust SpeedMPH,PrecipitationIn,Events,Conditions,WindDirDegrees,DateUTC
12:53 AM,12.9,8.1,81,30.31,10.0,Calm,Calm,-,N/A,,Overcast,0,2013-03-24 06:53:00
1:53 AM,12.0,7.0,80,30.29,10.0,Calm,Calm,-,N/A,,Mostly Cloudy,0,2013-03-24 07:53:00
2:53 AM,12.9,8.1,81,30.27,10.0,Calm,Calm,-,N/A,,Overcast,0,2013-03-24 08:53:00
3:53 AM,12.0,7.0,80,30.26,10.0,North,4.6,-,N/A,,Overcast,10,2013-03-24 09:53:00
4:53 AM,10.9,8.1,88,30.25,10.0,Calm,Calm,-,N/A,,Overcast,0,2013-03-24 10:53:00
5:53 AM,12.0,8.1,84,30.26,10.0,Calm,Calm,-,N/A,,Overcast,0,2013-03-24 11:53:00
6:53 AM,10.9,8.1,88,30.27,10.0,North,3.5,-,N/A,,Overcast,350,2013-03-24 12:53:00
7:53 AM,17.1,10.9,77,30.27,10.0,NW,8.1,-,N/A,,Overcast,320,2013-03-24 13:53:00
8:53 AM,19.9,12.0,71,30.27,10.0,NW,11.5,-,N/A,,Mostly Cloudy,320,2013-03-24 14:53:00
9:13 AM,21.2,10.4,63,30.09,10.0,NW,11.5,-,N/A,,Overcast,320,2013-03-24 15:13:00
9:28 AM,21.2,12.2,68,30.09,10.0,WNW,12.7,-,N/A,,Overcast,290,2013-03-24 15:28:00
9:50 AM,21.2,12.2,68,30.09,10.0,WNW,13.8,-,N/A,,Overcast,290,2013-03-24 15:50:00
9:53 AM,21.9,10.9,63,30.26,10.0,NW,15.0,25.3,N/A,,Overcast,310,2013-03-24 15:53:00
10:04 AM,21.2,8.6,58,30.09,10.0,NW,16.1,26.5,N/A,,Overcast,310,2013-03-24 16:04:00
10:53 AM,23.0,6.1,48,30.27,10.0,NW,19.6,-,N/A,,Overcast,320,2013-03-24 16:53:00
11:53 AM,24.1,1.0,37,30.27,10.0,NNW,25.3,33.4,N/A,,Overcast,340,2013-03-24 17:53:00
12:53 PM,21.9,6.1,51,30.29,10.0,NNW,24.2,32.2,N/A,,Overcast,340,2013-03-24 18:53:00
1:53 PM,23.0,8.1,53,30.29,10.0,North,25.3,31.1,N/A,,Overcast,350,2013-03-24 19:53:00
2:53 PM,25.0,5.0,43,30.28,10.0,NNW,21.9,29.9,N/A,,Mostly Cloudy,340,2013-03-24 20:53:00
3:53 PM,23.0,10.0,58,30.30,8.0,North,23.0,29.9,0.00,Snow,Light Snow,350,2013-03-24 21:53:00
4:53 PM,19.9,10.0,65,30.33,7.0,North,23.0,-,0.00,Snow,Light Snow,350,2013-03-24 22:53:00
5:23 PM,21.2,10.4,63,30.14,2.5,NNW,21.9,28.8,0.00,Snow,Light Snow,330,2013-03-24 23:23:00
5:32 PM,19.4,8.6,63,30.14,8.0,North,19.6,27.6,0.00,Snow,Light Snow,350,2013-03-24 23:32:00
5:41 PM,19.4,8.6,63,30.14,9.0,NNW,23.0,29.9,0.00,,Overcast,330,2013-03-24 23:41:00
6:53 PM,18.0,8.1,65,30.36,10.0,North,17.3,-,0.00,,Partly Cloudy,350,2013-03-25 00:53:00
7:53 PM,16.0,8.1,71,30.35,10.0,North,13.8,-,0.00,,Overcast,350,2013-03-25 01:53:00
8:53 PM,15.1,8.1,74,30.37,10.0,NNW,12.7,-,N/A,,Mostly Cloudy,340,2013-03-25 02:53:00
9:53 PM,15.1,10.0,80,30.37,10.0,NNW,4.6,-,N/A,,Overcast,330,2013-03-25 03:53:00
10:48 PM,15.8,10.4,79,30.21,2.5,North,6.9,-,0.00,Snow,Light Snow,350,2013-03-25 04:48:00
11:16 PM,15.8,10.4,79,30.21,1.8,North,6.9,-,0.00,Snow,Light Snow,360,2013-03-25 05:16:00
11:28 PM,14.0,10.4,86,30.21,2.0,North,6.9,-,0.00,Snow,Light Snow,360,2013-03-25 05:28:00
11:39 PM,14.0,10.4,86,30.21,2.5,North,5.8,-,0.00,Snow,Light Snow,360,2013-03-25 05:39:00
11:53 PM,14.0,10.0,84,30.39,7.0,North,4.6,-,0.00,Snow,Light Snow,360,2013-03-25 05:53:00